<?xml version="1.0" encoding="UTF-8" standalone="no" ?>
<gpx xmlns="http://www.topografix.com/GPX/1/1" xmlns:xsi="http://www.w3.org/2001/XMLSchema-instance" xsi:schemaLocation="http://www.topografix.com/GPX/1/1 http://www.topografix.com/GPX/1/1/gpx.xsd" version="1.1" creator="VisuGPX - https://www.visugpx.com">
  <metadata>
    <name>Circuit du 21-06-2012</name>
    <desc><![CDATA[Circuit du 21-06-2012]]></desc>
  </metadata>
  <wpt lat="45.37587" lon="3.74904">
    <ele>705</ele>
    <name><![CDATA[Start]]></name>
  </wpt>
  <wpt lat="45.38163" lon="3.74677">
    <ele>656.29998779297</ele>
    <name><![CDATA[End]]></name>
  </wpt>
  <trk>
    <name><![CDATA[Circuit du 21-06-2012_1]]></name>
    <trkseg>
      <trkpt lat="45.37587" lon="3.74904">
        <ele>705</ele>
        <time>2012-06-21T16:35:26Z</time>
      </trkpt>
      <trkpt lat="45.37588" lon="3.7492">
        <ele>705.09997558594</ele>
        <time>2012-06-21T16:35:30Z</time>
      </trkpt>
      <trkpt lat="45.37588" lon="3.7493">
        <ele>705.09997558594</ele>
        <time>2012-06-21T16:35:33Z</time>
      </trkpt>
      <trkpt lat="45.37589" lon="3.74937">
        <ele>702.90002441406</ele>
        <time>2012-06-21T16:35:36Z</time>
      </trkpt>
      <trkpt lat="45.37592" lon="3.74947">
        <ele>702.40002441406</ele>
        <time>2012-06-21T16:35:39Z</time>
      </trkpt>
      <trkpt lat="45.37595" lon="3.74956">
        <ele>703.40002441406</ele>
        <time>2012-06-21T16:35:42Z</time>
      </trkpt>
      <trkpt lat="45.37592" lon="3.74963">
        <ele>703</ele>
        <time>2012-06-21T16:35:43Z</time>
      </trkpt>
      <trkpt lat="45.37593" lon="3.7497">
        <ele>705.40002441406</ele>
        <time>2012-06-21T16:35:45Z</time>
      </trkpt>
      <trkpt lat="45.37595" lon="3.7498">
        <ele>705.20001220703</ele>
        <time>2012-06-21T16:35:48Z</time>
      </trkpt>
      <trkpt lat="45.37595" lon="3.74993">
        <ele>705.20001220703</ele>
        <time>2012-06-21T16:35:52Z</time>
      </trkpt>
      <trkpt lat="45.37594" lon="3.75002">
        <ele>705</ele>
        <time>2012-06-21T16:35:55Z</time>
      </trkpt>
      <trkpt lat="45.37592" lon="3.75011">
        <ele>705.79998779297</ele>
        <time>2012-06-21T16:35:58Z</time>
      </trkpt>
      <trkpt lat="45.3759" lon="3.75019">
        <ele>706.40002441406</ele>
        <time>2012-06-21T16:36:00Z</time>
      </trkpt>
      <trkpt lat="45.37588" lon="3.75027">
        <ele>705.09997558594</ele>
        <time>2012-06-21T16:36:02Z</time>
      </trkpt>
      <trkpt lat="45.37588" lon="3.75037">
        <ele>704.90002441406</ele>
        <time>2012-06-21T16:36:04Z</time>
      </trkpt>
      <trkpt lat="45.37594" lon="3.75049">
        <ele>701.70001220703</ele>
        <time>2012-06-21T16:36:10Z</time>
      </trkpt>
      <trkpt lat="45.37595" lon="3.75056">
        <ele>702.5</ele>
        <time>2012-06-21T16:36:12Z</time>
      </trkpt>
      <trkpt lat="45.37599" lon="3.75061">
        <ele>699.59997558594</ele>
        <time>2012-06-21T16:36:14Z</time>
      </trkpt>
      <trkpt lat="45.37602" lon="3.75068">
        <ele>699.20001220703</ele>
        <time>2012-06-21T16:36:17Z</time>
      </trkpt>
      <trkpt lat="45.37605" lon="3.75073">
        <ele>699.70001220703</ele>
        <time>2012-06-21T16:36:19Z</time>
      </trkpt>
      <trkpt lat="45.37607" lon="3.75079">
        <ele>699.09997558594</ele>
        <time>2012-06-21T16:36:21Z</time>
      </trkpt>
      <trkpt lat="45.37611" lon="3.75084">
        <ele>697.59997558594</ele>
        <time>2012-06-21T16:36:24Z</time>
      </trkpt>
      <trkpt lat="45.37615" lon="3.75091">
        <ele>697.20001220703</ele>
        <time>2012-06-21T16:36:27Z</time>
      </trkpt>
      <trkpt lat="45.37621" lon="3.75096">
        <ele>697.90002441406</ele>
        <time>2012-06-21T16:36:30Z</time>
      </trkpt>
      <trkpt lat="45.37631" lon="3.75112">
        <ele>697.5</ele>
        <time>2012-06-21T16:36:37Z</time>
      </trkpt>
      <trkpt lat="45.37636" lon="3.75119">
        <ele>697.59997558594</ele>
        <time>2012-06-21T16:36:39Z</time>
      </trkpt>
      <trkpt lat="45.37638" lon="3.75127">
        <ele>697.20001220703</ele>
        <time>2012-06-21T16:36:42Z</time>
      </trkpt>
      <trkpt lat="45.3764" lon="3.75133">
        <ele>696.90002441406</ele>
        <time>2012-06-21T16:36:45Z</time>
      </trkpt>
      <trkpt lat="45.3764" lon="3.75144">
        <ele>697.90002441406</ele>
        <time>2012-06-21T16:36:48Z</time>
      </trkpt>
      <trkpt lat="45.37641" lon="3.7516">
        <ele>697.29998779297</ele>
        <time>2012-06-21T16:36:53Z</time>
      </trkpt>
      <trkpt lat="45.37643" lon="3.75167">
        <ele>698.20001220703</ele>
        <time>2012-06-21T16:36:55Z</time>
      </trkpt>
      <trkpt lat="45.37645" lon="3.75174">
        <ele>696.90002441406</ele>
        <time>2012-06-21T16:36:57Z</time>
      </trkpt>
      <trkpt lat="45.37646" lon="3.75181">
        <ele>697.79998779297</ele>
        <time>2012-06-21T16:36:59Z</time>
      </trkpt>
      <trkpt lat="45.37646" lon="3.75188">
        <ele>697.20001220703</ele>
        <time>2012-06-21T16:37:01Z</time>
      </trkpt>
      <trkpt lat="45.37646" lon="3.75197">
        <ele>697.5</ele>
        <time>2012-06-21T16:37:04Z</time>
      </trkpt>
      <trkpt lat="45.37643" lon="3.75203">
        <ele>695.90002441406</ele>
        <time>2012-06-21T16:37:07Z</time>
      </trkpt>
      <trkpt lat="45.37641" lon="3.7521">
        <ele>696</ele>
        <time>2012-06-21T16:37:09Z</time>
      </trkpt>
      <trkpt lat="45.3764" lon="3.75225">
        <ele>694.90002441406</ele>
        <time>2012-06-21T16:37:14Z</time>
      </trkpt>
      <trkpt lat="45.37642" lon="3.75233">
        <ele>693.20001220703</ele>
        <time>2012-06-21T16:37:16Z</time>
      </trkpt>
      <trkpt lat="45.37641" lon="3.75242">
        <ele>691.70001220703</ele>
        <time>2012-06-21T16:37:19Z</time>
      </trkpt>
      <trkpt lat="45.37641" lon="3.75248">
        <ele>691.40002441406</ele>
        <time>2012-06-21T16:37:21Z</time>
      </trkpt>
      <trkpt lat="45.37639" lon="3.75257">
        <ele>691.90002441406</ele>
        <time>2012-06-21T16:37:24Z</time>
      </trkpt>
      <trkpt lat="45.37638" lon="3.7527">
        <ele>686.40002441406</ele>
        <time>2012-06-21T16:37:30Z</time>
      </trkpt>
      <trkpt lat="45.37632" lon="3.75289">
        <ele>683.90002441406</ele>
        <time>2012-06-21T16:37:38Z</time>
      </trkpt>
      <trkpt lat="45.37634" lon="3.75296">
        <ele>680.09997558594</ele>
        <time>2012-06-21T16:37:40Z</time>
      </trkpt>
      <trkpt lat="45.37631" lon="3.75302">
        <ele>679.09997558594</ele>
        <time>2012-06-21T16:37:43Z</time>
      </trkpt>
      <trkpt lat="45.37626" lon="3.75304">
        <ele>677.40002441406</ele>
        <time>2012-06-21T16:37:46Z</time>
      </trkpt>
      <trkpt lat="45.3762" lon="3.75303">
        <ele>678.20001220703</ele>
        <time>2012-06-21T16:37:49Z</time>
      </trkpt>
      <trkpt lat="45.37616" lon="3.75307">
        <ele>678.5</ele>
        <time>2012-06-21T16:37:51Z</time>
      </trkpt>
      <trkpt lat="45.3761" lon="3.75305">
        <ele>678.09997558594</ele>
        <time>2012-06-21T16:37:54Z</time>
      </trkpt>
      <trkpt lat="45.37601" lon="3.75302">
        <ele>678</ele>
        <time>2012-06-21T16:37:58Z</time>
      </trkpt>
      <trkpt lat="45.37597" lon="3.753">
        <ele>677.40002441406</ele>
        <time>2012-06-21T16:38:01Z</time>
      </trkpt>
      <trkpt lat="45.37591" lon="3.75299">
        <ele>670.20001220703</ele>
        <time>2012-06-21T16:38:07Z</time>
      </trkpt>
      <trkpt lat="45.37585" lon="3.75299">
        <ele>668.5</ele>
        <time>2012-06-21T16:38:09Z</time>
      </trkpt>
      <trkpt lat="45.3758" lon="3.75299">
        <ele>669.09997558594</ele>
        <time>2012-06-21T16:38:11Z</time>
      </trkpt>
      <trkpt lat="45.37572" lon="3.75298">
        <ele>670.29998779297</ele>
        <time>2012-06-21T16:38:14Z</time>
      </trkpt>
      <trkpt lat="45.37558" lon="3.75301">
        <ele>672.40002441406</ele>
        <time>2012-06-21T16:38:21Z</time>
      </trkpt>
      <trkpt lat="45.37554" lon="3.75305">
        <ele>674.20001220703</ele>
        <time>2012-06-21T16:38:23Z</time>
      </trkpt>
      <trkpt lat="45.3755" lon="3.75307">
        <ele>675.90002441406</ele>
        <time>2012-06-21T16:38:26Z</time>
      </trkpt>
      <trkpt lat="45.37546" lon="3.75312">
        <ele>678</ele>
        <time>2012-06-21T16:38:28Z</time>
      </trkpt>
      <trkpt lat="45.37541" lon="3.75314">
        <ele>680.79998779297</ele>
        <time>2012-06-21T16:38:31Z</time>
      </trkpt>
      <trkpt lat="45.37534" lon="3.75319">
        <ele>683.09997558594</ele>
        <time>2012-06-21T16:38:34Z</time>
      </trkpt>
      <trkpt lat="45.3753" lon="3.75324">
        <ele>685.09997558594</ele>
        <time>2012-06-21T16:38:37Z</time>
      </trkpt>
      <trkpt lat="45.37526" lon="3.75327">
        <ele>685.29998779297</ele>
        <time>2012-06-21T16:38:39Z</time>
      </trkpt>
      <trkpt lat="45.37521" lon="3.75334">
        <ele>686.20001220703</ele>
        <time>2012-06-21T16:38:42Z</time>
      </trkpt>
      <trkpt lat="45.37515" lon="3.75346">
        <ele>688.20001220703</ele>
        <time>2012-06-21T16:38:47Z</time>
      </trkpt>
      <trkpt lat="45.37512" lon="3.75355">
        <ele>690.59997558594</ele>
        <time>2012-06-21T16:38:50Z</time>
      </trkpt>
      <trkpt lat="45.37511" lon="3.75365">
        <ele>692.09997558594</ele>
        <time>2012-06-21T16:38:53Z</time>
      </trkpt>
      <trkpt lat="45.37512" lon="3.75373">
        <ele>692.59997558594</ele>
        <time>2012-06-21T16:38:56Z</time>
      </trkpt>
      <trkpt lat="45.37511" lon="3.75381">
        <ele>693.70001220703</ele>
        <time>2012-06-21T16:38:59Z</time>
      </trkpt>
      <trkpt lat="45.37511" lon="3.75392">
        <ele>695.5</ele>
        <time>2012-06-21T16:39:02Z</time>
      </trkpt>
      <trkpt lat="45.37509" lon="3.75401">
        <ele>696.70001220703</ele>
        <time>2012-06-21T16:39:05Z</time>
      </trkpt>
      <trkpt lat="45.37508" lon="3.75413">
        <ele>696.09997558594</ele>
        <time>2012-06-21T16:39:09Z</time>
      </trkpt>
      <trkpt lat="45.37506" lon="3.75432">
        <ele>696.20001220703</ele>
        <time>2012-06-21T16:39:17Z</time>
      </trkpt>
      <trkpt lat="45.37506" lon="3.7544">
        <ele>695.20001220703</ele>
        <time>2012-06-21T16:39:20Z</time>
      </trkpt>
      <trkpt lat="45.37502" lon="3.75449">
        <ele>693.40002441406</ele>
        <time>2012-06-21T16:39:24Z</time>
      </trkpt>
      <trkpt lat="45.37499" lon="3.75469">
        <ele>690</ele>
        <time>2012-06-21T16:39:32Z</time>
      </trkpt>
      <trkpt lat="45.37495" lon="3.75474">
        <ele>689.40002441406</ele>
        <time>2012-06-21T16:39:35Z</time>
      </trkpt>
      <trkpt lat="45.37491" lon="3.75496">
        <ele>688.59997558594</ele>
        <time>2012-06-21T16:39:43Z</time>
      </trkpt>
      <trkpt lat="45.37489" lon="3.75502">
        <ele>688.5</ele>
        <time>2012-06-21T16:39:46Z</time>
      </trkpt>
      <trkpt lat="45.37486" lon="3.75507">
        <ele>688.59997558594</ele>
        <time>2012-06-21T16:39:49Z</time>
      </trkpt>
      <trkpt lat="45.37476" lon="3.75515">
        <ele>691.20001220703</ele>
        <time>2012-06-21T16:39:54Z</time>
      </trkpt>
      <trkpt lat="45.37469" lon="3.7553">
        <ele>689.70001220703</ele>
        <time>2012-06-21T16:40:01Z</time>
      </trkpt>
      <trkpt lat="45.37464" lon="3.75535">
        <ele>688.59997558594</ele>
        <time>2012-06-21T16:40:04Z</time>
      </trkpt>
      <trkpt lat="45.37459" lon="3.75539">
        <ele>687</ele>
        <time>2012-06-21T16:40:06Z</time>
      </trkpt>
      <trkpt lat="45.37453" lon="3.75545">
        <ele>685.40002441406</ele>
        <time>2012-06-21T16:40:09Z</time>
      </trkpt>
      <trkpt lat="45.37454" lon="3.75554">
        <ele>684.29998779297</ele>
        <time>2012-06-21T16:40:11Z</time>
      </trkpt>
      <trkpt lat="45.37458" lon="3.75561">
        <ele>683.70001220703</ele>
        <time>2012-06-21T16:40:14Z</time>
      </trkpt>
      <trkpt lat="45.3746" lon="3.75567">
        <ele>680.40002441406</ele>
        <time>2012-06-21T16:40:17Z</time>
      </trkpt>
      <trkpt lat="45.37463" lon="3.75571">
        <ele>680.70001220703</ele>
        <time>2012-06-21T16:40:20Z</time>
      </trkpt>
      <trkpt lat="45.37469" lon="3.75573">
        <ele>676.70001220703</ele>
        <time>2012-06-21T16:40:25Z</time>
      </trkpt>
      <trkpt lat="45.37475" lon="3.75578">
        <ele>676.40002441406</ele>
        <time>2012-06-21T16:40:28Z</time>
      </trkpt>
      <trkpt lat="45.37481" lon="3.7558">
        <ele>677.09997558594</ele>
        <time>2012-06-21T16:40:31Z</time>
      </trkpt>
      <trkpt lat="45.37486" lon="3.75581">
        <ele>677.40002441406</ele>
        <time>2012-06-21T16:40:33Z</time>
      </trkpt>
      <trkpt lat="45.3749" lon="3.7558">
        <ele>678.40002441406</ele>
        <time>2012-06-21T16:40:36Z</time>
      </trkpt>
      <trkpt lat="45.37495" lon="3.75579">
        <ele>681.5</ele>
        <time>2012-06-21T16:40:38Z</time>
      </trkpt>
      <trkpt lat="45.37499" lon="3.75577">
        <ele>680.09997558594</ele>
        <time>2012-06-21T16:40:40Z</time>
      </trkpt>
      <trkpt lat="45.37504" lon="3.75573">
        <ele>676.09997558594</ele>
        <time>2012-06-21T16:40:45Z</time>
      </trkpt>
      <trkpt lat="45.37509" lon="3.75574">
        <ele>674.20001220703</ele>
        <time>2012-06-21T16:40:47Z</time>
      </trkpt>
      <trkpt lat="45.37515" lon="3.75573">
        <ele>673.79998779297</ele>
        <time>2012-06-21T16:40:49Z</time>
      </trkpt>
      <trkpt lat="45.3752" lon="3.75574">
        <ele>672.29998779297</ele>
        <time>2012-06-21T16:40:52Z</time>
      </trkpt>
      <trkpt lat="45.37526" lon="3.75572">
        <ele>670</ele>
        <time>2012-06-21T16:40:56Z</time>
      </trkpt>
      <trkpt lat="45.37531" lon="3.75568">
        <ele>668.90002441406</ele>
        <time>2012-06-21T16:40:59Z</time>
      </trkpt>
      <trkpt lat="45.37536" lon="3.75564">
        <ele>665.5</ele>
        <time>2012-06-21T16:41:03Z</time>
      </trkpt>
      <trkpt lat="45.37541" lon="3.75562">
        <ele>664.5</ele>
        <time>2012-06-21T16:41:05Z</time>
      </trkpt>
      <trkpt lat="45.37545" lon="3.75557">
        <ele>661.90002441406</ele>
        <time>2012-06-21T16:41:09Z</time>
      </trkpt>
      <trkpt lat="45.37553" lon="3.75549">
        <ele>661.5</ele>
        <time>2012-06-21T16:41:13Z</time>
      </trkpt>
      <trkpt lat="45.37558" lon="3.75547">
        <ele>663.20001220703</ele>
        <time>2012-06-21T16:41:15Z</time>
      </trkpt>
      <trkpt lat="45.37572" lon="3.75541">
        <ele>661.90002441406</ele>
        <time>2012-06-21T16:41:24Z</time>
      </trkpt>
      <trkpt lat="45.37578" lon="3.7554">
        <ele>665</ele>
        <time>2012-06-21T16:41:26Z</time>
      </trkpt>
      <trkpt lat="45.37584" lon="3.7554">
        <ele>665.59997558594</ele>
        <time>2012-06-21T16:41:28Z</time>
      </trkpt>
      <trkpt lat="45.37598" lon="3.7554">
        <ele>666.5</ele>
        <time>2012-06-21T16:41:33Z</time>
      </trkpt>
      <trkpt lat="45.37604" lon="3.75541">
        <ele>664.29998779297</ele>
        <time>2012-06-21T16:41:36Z</time>
      </trkpt>
      <trkpt lat="45.37605" lon="3.7555">
        <ele>666.90002441406</ele>
        <time>2012-06-21T16:41:40Z</time>
      </trkpt>
      <trkpt lat="45.37608" lon="3.75555">
        <ele>667.79998779297</ele>
        <time>2012-06-21T16:41:42Z</time>
      </trkpt>
      <trkpt lat="45.37611" lon="3.75561">
        <ele>666.79998779297</ele>
        <time>2012-06-21T16:41:44Z</time>
      </trkpt>
      <trkpt lat="45.37618" lon="3.75571">
        <ele>667.40002441406</ele>
        <time>2012-06-21T16:41:47Z</time>
      </trkpt>
      <trkpt lat="45.37618" lon="3.75578">
        <ele>668.20001220703</ele>
        <time>2012-06-21T16:41:50Z</time>
      </trkpt>
      <trkpt lat="45.37621" lon="3.75587">
        <ele>667</ele>
        <time>2012-06-21T16:41:53Z</time>
      </trkpt>
      <trkpt lat="45.37625" lon="3.75595">
        <ele>667.29998779297</ele>
        <time>2012-06-21T16:41:56Z</time>
      </trkpt>
      <trkpt lat="45.37626" lon="3.75602">
        <ele>666.40002441406</ele>
        <time>2012-06-21T16:41:59Z</time>
      </trkpt>
      <trkpt lat="45.3763" lon="3.75609">
        <ele>665.5</ele>
        <time>2012-06-21T16:42:02Z</time>
      </trkpt>
      <trkpt lat="45.37633" lon="3.75615">
        <ele>665.70001220703</ele>
        <time>2012-06-21T16:42:04Z</time>
      </trkpt>
      <trkpt lat="45.37634" lon="3.75624">
        <ele>665.79998779297</ele>
        <time>2012-06-21T16:42:07Z</time>
      </trkpt>
      <trkpt lat="45.37636" lon="3.75632">
        <ele>665.5</ele>
        <time>2012-06-21T16:42:10Z</time>
      </trkpt>
      <trkpt lat="45.37639" lon="3.75641">
        <ele>665.09997558594</ele>
        <time>2012-06-21T16:42:13Z</time>
      </trkpt>
      <trkpt lat="45.37641" lon="3.75649">
        <ele>665</ele>
        <time>2012-06-21T16:42:16Z</time>
      </trkpt>
      <trkpt lat="45.37641" lon="3.75656">
        <ele>666.70001220703</ele>
        <time>2012-06-21T16:42:19Z</time>
      </trkpt>
      <trkpt lat="45.37642" lon="3.75665">
        <ele>667</ele>
        <time>2012-06-21T16:42:22Z</time>
      </trkpt>
      <trkpt lat="45.37648" lon="3.75691">
        <ele>667.59997558594</ele>
        <time>2012-06-21T16:42:32Z</time>
      </trkpt>
      <trkpt lat="45.37651" lon="3.75698">
        <ele>667.20001220703</ele>
        <time>2012-06-21T16:42:35Z</time>
      </trkpt>
      <trkpt lat="45.37652" lon="3.7571">
        <ele>668</ele>
        <time>2012-06-21T16:42:39Z</time>
      </trkpt>
      <trkpt lat="45.37655" lon="3.75716">
        <ele>668.20001220703</ele>
        <time>2012-06-21T16:42:42Z</time>
      </trkpt>
      <trkpt lat="45.37657" lon="3.75723">
        <ele>668.20001220703</ele>
        <time>2012-06-21T16:42:44Z</time>
      </trkpt>
      <trkpt lat="45.37658" lon="3.75732">
        <ele>669.40002441406</ele>
        <time>2012-06-21T16:42:47Z</time>
      </trkpt>
      <trkpt lat="45.37663" lon="3.75737">
        <ele>671.09997558594</ele>
        <time>2012-06-21T16:42:50Z</time>
      </trkpt>
      <trkpt lat="45.37666" lon="3.75742">
        <ele>668.09997558594</ele>
        <time>2012-06-21T16:42:54Z</time>
      </trkpt>
      <trkpt lat="45.37669" lon="3.75749">
        <ele>667.29998779297</ele>
        <time>2012-06-21T16:42:58Z</time>
      </trkpt>
      <trkpt lat="45.37674" lon="3.75752">
        <ele>669.09997558594</ele>
        <time>2012-06-21T16:42:59Z</time>
      </trkpt>
      <trkpt lat="45.37678" lon="3.75756">
        <ele>671.29998779297</ele>
        <time>2012-06-21T16:43:01Z</time>
      </trkpt>
      <trkpt lat="45.3769" lon="3.75762">
        <ele>673.59997558594</ele>
        <time>2012-06-21T16:43:08Z</time>
      </trkpt>
      <trkpt lat="45.37695" lon="3.7576">
        <ele>671.5</ele>
        <time>2012-06-21T16:43:12Z</time>
      </trkpt>
      <trkpt lat="45.37699" lon="3.75755">
        <ele>671.5</ele>
        <time>2012-06-21T16:43:15Z</time>
      </trkpt>
      <trkpt lat="45.37703" lon="3.75746">
        <ele>669</ele>
        <time>2012-06-21T16:43:19Z</time>
      </trkpt>
      <trkpt lat="45.37707" lon="3.75742">
        <ele>668.09997558594</ele>
        <time>2012-06-21T16:43:22Z</time>
      </trkpt>
      <trkpt lat="45.3771" lon="3.75733">
        <ele>669.40002441406</ele>
        <time>2012-06-21T16:43:26Z</time>
      </trkpt>
      <trkpt lat="45.37714" lon="3.75724">
        <ele>670</ele>
        <time>2012-06-21T16:43:29Z</time>
      </trkpt>
      <trkpt lat="45.37715" lon="3.75717">
        <ele>670.20001220703</ele>
        <time>2012-06-21T16:43:31Z</time>
      </trkpt>
      <trkpt lat="45.37717" lon="3.75709">
        <ele>673</ele>
        <time>2012-06-21T16:43:36Z</time>
      </trkpt>
      <trkpt lat="45.37721" lon="3.75704">
        <ele>673.90002441406</ele>
        <time>2012-06-21T16:43:38Z</time>
      </trkpt>
      <trkpt lat="45.37726" lon="3.75698">
        <ele>675.29998779297</ele>
        <time>2012-06-21T16:43:42Z</time>
      </trkpt>
      <trkpt lat="45.37729" lon="3.75692">
        <ele>675.5</ele>
        <time>2012-06-21T16:43:46Z</time>
      </trkpt>
      <trkpt lat="45.37732" lon="3.75687">
        <ele>675.59997558594</ele>
        <time>2012-06-21T16:43:49Z</time>
      </trkpt>
      <trkpt lat="45.37737" lon="3.75686">
        <ele>674.90002441406</ele>
        <time>2012-06-21T16:43:52Z</time>
      </trkpt>
      <trkpt lat="45.37742" lon="3.75686">
        <ele>674.70001220703</ele>
        <time>2012-06-21T16:43:56Z</time>
      </trkpt>
      <trkpt lat="45.37746" lon="3.75682">
        <ele>673.40002441406</ele>
        <time>2012-06-21T16:43:59Z</time>
      </trkpt>
      <trkpt lat="45.37753" lon="3.7568">
        <ele>675.09997558594</ele>
        <time>2012-06-21T16:44:01Z</time>
      </trkpt>
      <trkpt lat="45.37759" lon="3.75678">
        <ele>676.70001220703</ele>
        <time>2012-06-21T16:44:03Z</time>
      </trkpt>
      <trkpt lat="45.37763" lon="3.75675">
        <ele>668.29998779297</ele>
        <time>2012-06-21T16:44:09Z</time>
      </trkpt>
      <trkpt lat="45.37769" lon="3.75672">
        <ele>668.40002441406</ele>
        <time>2012-06-21T16:44:12Z</time>
      </trkpt>
      <trkpt lat="45.37797" lon="3.75657">
        <ele>672</ele>
        <time>2012-06-21T16:44:27Z</time>
      </trkpt>
      <trkpt lat="45.37797" lon="3.7565">
        <ele>668</ele>
        <time>2012-06-21T16:44:31Z</time>
      </trkpt>
      <trkpt lat="45.37804" lon="3.75647">
        <ele>664.40002441406</ele>
        <time>2012-06-21T16:44:34Z</time>
      </trkpt>
      <trkpt lat="45.3781" lon="3.75643">
        <ele>665.09997558594</ele>
        <time>2012-06-21T16:44:37Z</time>
      </trkpt>
      <trkpt lat="45.37815" lon="3.75641">
        <ele>665.09997558594</ele>
        <time>2012-06-21T16:44:39Z</time>
      </trkpt>
      <trkpt lat="45.37819" lon="3.75635">
        <ele>668.79998779297</ele>
        <time>2012-06-21T16:44:42Z</time>
      </trkpt>
      <trkpt lat="45.37824" lon="3.75632">
        <ele>669.29998779297</ele>
        <time>2012-06-21T16:44:44Z</time>
      </trkpt>
      <trkpt lat="45.37837" lon="3.7562">
        <ele>671.40002441406</ele>
        <time>2012-06-21T16:44:52Z</time>
      </trkpt>
      <trkpt lat="45.37843" lon="3.75616">
        <ele>672.90002441406</ele>
        <time>2012-06-21T16:44:55Z</time>
      </trkpt>
      <trkpt lat="45.37849" lon="3.75612">
        <ele>673.90002441406</ele>
        <time>2012-06-21T16:44:57Z</time>
      </trkpt>
      <trkpt lat="45.37856" lon="3.75608">
        <ele>675.59997558594</ele>
        <time>2012-06-21T16:45:00Z</time>
      </trkpt>
      <trkpt lat="45.3786" lon="3.75605">
        <ele>672.40002441406</ele>
        <time>2012-06-21T16:45:03Z</time>
      </trkpt>
      <trkpt lat="45.37866" lon="3.75604">
        <ele>673.90002441406</ele>
        <time>2012-06-21T16:45:05Z</time>
      </trkpt>
      <trkpt lat="45.3787" lon="3.756">
        <ele>673.09997558594</ele>
        <time>2012-06-21T16:45:08Z</time>
      </trkpt>
      <trkpt lat="45.37876" lon="3.75597">
        <ele>675.09997558594</ele>
        <time>2012-06-21T16:45:10Z</time>
      </trkpt>
      <trkpt lat="45.37882" lon="3.75593">
        <ele>674.5</ele>
        <time>2012-06-21T16:45:13Z</time>
      </trkpt>
      <trkpt lat="45.37886" lon="3.75589">
        <ele>671.70001220703</ele>
        <time>2012-06-21T16:45:16Z</time>
      </trkpt>
      <trkpt lat="45.37895" lon="3.75583">
        <ele>671.40002441406</ele>
        <time>2012-06-21T16:45:21Z</time>
      </trkpt>
      <trkpt lat="45.379" lon="3.7558">
        <ele>670.09997558594</ele>
        <time>2012-06-21T16:45:24Z</time>
      </trkpt>
      <trkpt lat="45.37908" lon="3.75573">
        <ele>670.20001220703</ele>
        <time>2012-06-21T16:45:28Z</time>
      </trkpt>
      <trkpt lat="45.37916" lon="3.75569">
        <ele>670.79998779297</ele>
        <time>2012-06-21T16:45:32Z</time>
      </trkpt>
      <trkpt lat="45.37925" lon="3.75562">
        <ele>671</ele>
        <time>2012-06-21T16:45:37Z</time>
      </trkpt>
      <trkpt lat="45.37932" lon="3.75558">
        <ele>672.09997558594</ele>
        <time>2012-06-21T16:45:40Z</time>
      </trkpt>
      <trkpt lat="45.37939" lon="3.75554">
        <ele>672.5</ele>
        <time>2012-06-21T16:45:42Z</time>
      </trkpt>
      <trkpt lat="45.37944" lon="3.7555">
        <ele>672.5</ele>
        <time>2012-06-21T16:45:45Z</time>
      </trkpt>
      <trkpt lat="45.3796" lon="3.75539">
        <ele>673.59997558594</ele>
        <time>2012-06-21T16:45:53Z</time>
      </trkpt>
      <trkpt lat="45.37966" lon="3.75535">
        <ele>673.90002441406</ele>
        <time>2012-06-21T16:45:56Z</time>
      </trkpt>
      <trkpt lat="45.3797" lon="3.75533">
        <ele>674.79998779297</ele>
        <time>2012-06-21T16:45:58Z</time>
      </trkpt>
      <trkpt lat="45.37974" lon="3.75529">
        <ele>674.40002441406</ele>
        <time>2012-06-21T16:46:00Z</time>
      </trkpt>
      <trkpt lat="45.37978" lon="3.75524">
        <ele>674.79998779297</ele>
        <time>2012-06-21T16:46:03Z</time>
      </trkpt>
      <trkpt lat="45.37988" lon="3.7552">
        <ele>677.29998779297</ele>
        <time>2012-06-21T16:46:06Z</time>
      </trkpt>
      <trkpt lat="45.37993" lon="3.75516">
        <ele>676.29998779297</ele>
        <time>2012-06-21T16:46:09Z</time>
      </trkpt>
      <trkpt lat="45.37997" lon="3.75513">
        <ele>676.29998779297</ele>
        <time>2012-06-21T16:46:11Z</time>
      </trkpt>
      <trkpt lat="45.38002" lon="3.75511">
        <ele>676.09997558594</ele>
        <time>2012-06-21T16:46:13Z</time>
      </trkpt>
      <trkpt lat="45.38006" lon="3.75508">
        <ele>676.40002441406</ele>
        <time>2012-06-21T16:46:15Z</time>
      </trkpt>
      <trkpt lat="45.38011" lon="3.75505">
        <ele>676.09997558594</ele>
        <time>2012-06-21T16:46:17Z</time>
      </trkpt>
      <trkpt lat="45.38018" lon="3.75502">
        <ele>677.90002441406</ele>
        <time>2012-06-21T16:46:19Z</time>
      </trkpt>
      <trkpt lat="45.38022" lon="3.75498">
        <ele>678.5</ele>
        <time>2012-06-21T16:46:22Z</time>
      </trkpt>
      <trkpt lat="45.38026" lon="3.75494">
        <ele>676.29998779297</ele>
        <time>2012-06-21T16:46:25Z</time>
      </trkpt>
      <trkpt lat="45.38031" lon="3.7549">
        <ele>674.90002441406</ele>
        <time>2012-06-21T16:46:29Z</time>
      </trkpt>
      <trkpt lat="45.38037" lon="3.75486">
        <ele>674.29998779297</ele>
        <time>2012-06-21T16:46:32Z</time>
      </trkpt>
      <trkpt lat="45.38041" lon="3.75484">
        <ele>674.20001220703</ele>
        <time>2012-06-21T16:46:34Z</time>
      </trkpt>
      <trkpt lat="45.38046" lon="3.75481">
        <ele>674.79998779297</ele>
        <time>2012-06-21T16:46:37Z</time>
      </trkpt>
      <trkpt lat="45.38051" lon="3.75477">
        <ele>675.20001220703</ele>
        <time>2012-06-21T16:46:40Z</time>
      </trkpt>
      <trkpt lat="45.38059" lon="3.75471">
        <ele>675.79998779297</ele>
        <time>2012-06-21T16:46:44Z</time>
      </trkpt>
      <trkpt lat="45.38061" lon="3.75463">
        <ele>668.90002441406</ele>
        <time>2012-06-21T16:46:50Z</time>
      </trkpt>
      <trkpt lat="45.38068" lon="3.75458">
        <ele>669.40002441406</ele>
        <time>2012-06-21T16:46:53Z</time>
      </trkpt>
      <trkpt lat="45.38072" lon="3.75454">
        <ele>669.5</ele>
        <time>2012-06-21T16:46:55Z</time>
      </trkpt>
      <trkpt lat="45.38075" lon="3.75445">
        <ele>671.70001220703</ele>
        <time>2012-06-21T16:46:57Z</time>
      </trkpt>
      <trkpt lat="45.38079" lon="3.75443">
        <ele>672.59997558594</ele>
        <time>2012-06-21T16:46:58Z</time>
      </trkpt>
      <trkpt lat="45.38085" lon="3.7544">
        <ele>673.70001220703</ele>
        <time>2012-06-21T16:47:00Z</time>
      </trkpt>
      <trkpt lat="45.3809" lon="3.75435">
        <ele>673.90002441406</ele>
        <time>2012-06-21T16:47:02Z</time>
      </trkpt>
      <trkpt lat="45.38094" lon="3.7543">
        <ele>672.5</ele>
        <time>2012-06-21T16:47:06Z</time>
      </trkpt>
      <trkpt lat="45.38099" lon="3.7542">
        <ele>673.09997558594</ele>
        <time>2012-06-21T16:47:11Z</time>
      </trkpt>
      <trkpt lat="45.38102" lon="3.75414">
        <ele>670.59997558594</ele>
        <time>2012-06-21T16:47:15Z</time>
      </trkpt>
      <trkpt lat="45.38109" lon="3.75407">
        <ele>672</ele>
        <time>2012-06-21T16:47:18Z</time>
      </trkpt>
      <trkpt lat="45.38115" lon="3.75403">
        <ele>669.09997558594</ele>
        <time>2012-06-21T16:47:21Z</time>
      </trkpt>
      <trkpt lat="45.38121" lon="3.75392">
        <ele>670.29998779297</ele>
        <time>2012-06-21T16:47:26Z</time>
      </trkpt>
      <trkpt lat="45.38125" lon="3.75385">
        <ele>670.70001220703</ele>
        <time>2012-06-21T16:47:29Z</time>
      </trkpt>
      <trkpt lat="45.38129" lon="3.75378">
        <ele>670.90002441406</ele>
        <time>2012-06-21T16:47:32Z</time>
      </trkpt>
      <trkpt lat="45.38133" lon="3.75371">
        <ele>669.79998779297</ele>
        <time>2012-06-21T16:47:36Z</time>
      </trkpt>
      <trkpt lat="45.38139" lon="3.75367">
        <ele>668.79998779297</ele>
        <time>2012-06-21T16:47:39Z</time>
      </trkpt>
      <trkpt lat="45.38145" lon="3.75365">
        <ele>669.29998779297</ele>
        <time>2012-06-21T16:47:41Z</time>
      </trkpt>
      <trkpt lat="45.3815" lon="3.75365">
        <ele>669.20001220703</ele>
        <time>2012-06-21T16:47:42Z</time>
      </trkpt>
      <trkpt lat="45.38158" lon="3.7536">
        <ele>672.70001220703</ele>
        <time>2012-06-21T16:47:45Z</time>
      </trkpt>
      <trkpt lat="45.38161" lon="3.75356">
        <ele>674.59997558594</ele>
        <time>2012-06-21T16:47:47Z</time>
      </trkpt>
      <trkpt lat="45.38157" lon="3.7535">
        <ele>668.40002441406</ele>
        <time>2012-06-21T16:47:51Z</time>
      </trkpt>
      <trkpt lat="45.38162" lon="3.75346">
        <ele>666.79998779297</ele>
        <time>2012-06-21T16:47:54Z</time>
      </trkpt>
      <trkpt lat="45.38166" lon="3.75342">
        <ele>667</ele>
        <time>2012-06-21T16:47:56Z</time>
      </trkpt>
      <trkpt lat="45.38171" lon="3.7534">
        <ele>667.09997558594</ele>
        <time>2012-06-21T16:47:59Z</time>
      </trkpt>
      <trkpt lat="45.38174" lon="3.75334">
        <ele>663.70001220703</ele>
        <time>2012-06-21T16:48:01Z</time>
      </trkpt>
      <trkpt lat="45.38179" lon="3.75328">
        <ele>665.09997558594</ele>
        <time>2012-06-21T16:48:05Z</time>
      </trkpt>
      <trkpt lat="45.38186" lon="3.75322">
        <ele>663.90002441406</ele>
        <time>2012-06-21T16:48:09Z</time>
      </trkpt>
      <trkpt lat="45.3819" lon="3.75315">
        <ele>664</ele>
        <time>2012-06-21T16:48:11Z</time>
      </trkpt>
      <trkpt lat="45.38203" lon="3.75308">
        <ele>665</ele>
        <time>2012-06-21T16:48:16Z</time>
      </trkpt>
      <trkpt lat="45.38208" lon="3.75302">
        <ele>666.5</ele>
        <time>2012-06-21T16:48:19Z</time>
      </trkpt>
      <trkpt lat="45.38221" lon="3.75292">
        <ele>668.90002441406</ele>
        <time>2012-06-21T16:48:25Z</time>
      </trkpt>
      <trkpt lat="45.38219" lon="3.75285">
        <ele>668.5</ele>
        <time>2012-06-21T16:48:28Z</time>
      </trkpt>
      <trkpt lat="45.38222" lon="3.7528">
        <ele>668.5</ele>
        <time>2012-06-21T16:48:31Z</time>
      </trkpt>
      <trkpt lat="45.38228" lon="3.75277">
        <ele>668.29998779297</ele>
        <time>2012-06-21T16:48:34Z</time>
      </trkpt>
      <trkpt lat="45.38236" lon="3.75274">
        <ele>667.74938964844</ele>
        <time>2012-06-21T16:48:36Z</time>
      </trkpt>
      <trkpt lat="45.38234" lon="3.75264">
        <ele>669.09997558594</ele>
        <time>2012-06-21T16:48:37Z</time>
      </trkpt>
      <trkpt lat="45.38239" lon="3.75264">
        <ele>669.70001220703</ele>
        <time>2012-06-21T16:48:39Z</time>
      </trkpt>
      <trkpt lat="45.38244" lon="3.75259">
        <ele>669.20001220703</ele>
        <time>2012-06-21T16:48:44Z</time>
      </trkpt>
      <trkpt lat="45.38249" lon="3.75253">
        <ele>667.5</ele>
        <time>2012-06-21T16:48:49Z</time>
      </trkpt>
      <trkpt lat="45.38252" lon="3.75249">
        <ele>668.29296875</ele>
        <time>2012-06-21T16:48:49Z</time>
      </trkpt>
      <trkpt lat="45.38262" lon="3.75234">
        <ele>666.40002441406</ele>
        <time>2012-06-21T16:48:56Z</time>
      </trkpt>
      <trkpt lat="45.38271" lon="3.75221">
        <ele>663.20001220703</ele>
        <time>2012-06-21T16:49:01Z</time>
      </trkpt>
      <trkpt lat="45.38285" lon="3.75197">
        <ele>662.90002441406</ele>
        <time>2012-06-21T16:49:08Z</time>
      </trkpt>
      <trkpt lat="45.38288" lon="3.75192">
        <ele>662.79998779297</ele>
        <time>2012-06-21T16:49:10Z</time>
      </trkpt>
      <trkpt lat="45.38293" lon="3.75188">
        <ele>660.70001220703</ele>
        <time>2012-06-21T16:49:12Z</time>
      </trkpt>
      <trkpt lat="45.38291" lon="3.7518">
        <ele>660.79998779297</ele>
        <time>2012-06-21T16:49:15Z</time>
      </trkpt>
      <trkpt lat="45.3829" lon="3.75172">
        <ele>660.40002441406</ele>
        <time>2012-06-21T16:49:17Z</time>
      </trkpt>
      <trkpt lat="45.38295" lon="3.75172">
        <ele>662.59997558594</ele>
        <time>2012-06-21T16:49:19Z</time>
      </trkpt>
      <trkpt lat="45.38299" lon="3.75168">
        <ele>662.40002441406</ele>
        <time>2012-06-21T16:49:21Z</time>
      </trkpt>
      <trkpt lat="45.38298" lon="3.7516">
        <ele>661.40002441406</ele>
        <time>2012-06-21T16:49:23Z</time>
      </trkpt>
      <trkpt lat="45.38301" lon="3.75154">
        <ele>658.70001220703</ele>
        <time>2012-06-21T16:49:26Z</time>
      </trkpt>
      <trkpt lat="45.383" lon="3.75145">
        <ele>653.59997558594</ele>
        <time>2012-06-21T16:49:29Z</time>
      </trkpt>
      <trkpt lat="45.38304" lon="3.75128">
        <ele>654.20001220703</ele>
        <time>2012-06-21T16:49:35Z</time>
      </trkpt>
      <trkpt lat="45.38303" lon="3.7512">
        <ele>654.70001220703</ele>
        <time>2012-06-21T16:49:37Z</time>
      </trkpt>
      <trkpt lat="45.38311" lon="3.75115">
        <ele>655.79998779297</ele>
        <time>2012-06-21T16:49:42Z</time>
      </trkpt>
      <trkpt lat="45.38317" lon="3.75113">
        <ele>657</ele>
        <time>2012-06-21T16:49:46Z</time>
      </trkpt>
      <trkpt lat="45.38324" lon="3.75109">
        <ele>656.29998779297</ele>
        <time>2012-06-21T16:49:48Z</time>
      </trkpt>
      <trkpt lat="45.38326" lon="3.75101">
        <ele>653.5</ele>
        <time>2012-06-21T16:49:51Z</time>
      </trkpt>
      <trkpt lat="45.38329" lon="3.75092">
        <ele>656</ele>
        <time>2012-06-21T16:49:54Z</time>
      </trkpt>
      <trkpt lat="45.38333" lon="3.75086">
        <ele>656.09997558594</ele>
        <time>2012-06-21T16:49:56Z</time>
      </trkpt>
      <trkpt lat="45.38336" lon="3.7508">
        <ele>653.5</ele>
        <time>2012-06-21T16:50:00Z</time>
      </trkpt>
      <trkpt lat="45.38345" lon="3.75065">
        <ele>655.29998779297</ele>
        <time>2012-06-21T16:50:06Z</time>
      </trkpt>
      <trkpt lat="45.38345" lon="3.75056">
        <ele>654.09997558594</ele>
        <time>2012-06-21T16:50:09Z</time>
      </trkpt>
      <trkpt lat="45.38348" lon="3.7505">
        <ele>653.5</ele>
        <time>2012-06-21T16:50:12Z</time>
      </trkpt>
      <trkpt lat="45.3835" lon="3.75043">
        <ele>653.40002441406</ele>
        <time>2012-06-21T16:50:14Z</time>
      </trkpt>
      <trkpt lat="45.38349" lon="3.75036">
        <ele>653.09997558594</ele>
        <time>2012-06-21T16:50:16Z</time>
      </trkpt>
      <trkpt lat="45.38352" lon="3.75027">
        <ele>653.29998779297</ele>
        <time>2012-06-21T16:50:19Z</time>
      </trkpt>
      <trkpt lat="45.38356" lon="3.75022">
        <ele>653.59997558594</ele>
        <time>2012-06-21T16:50:21Z</time>
      </trkpt>
      <trkpt lat="45.38358" lon="3.75013">
        <ele>653.40002441406</ele>
        <time>2012-06-21T16:50:24Z</time>
      </trkpt>
      <trkpt lat="45.38356" lon="3.75003">
        <ele>652.09997558594</ele>
        <time>2012-06-21T16:50:29Z</time>
      </trkpt>
      <trkpt lat="45.38352" lon="3.74998">
        <ele>653.70001220703</ele>
        <time>2012-06-21T16:50:31Z</time>
      </trkpt>
      <trkpt lat="45.38347" lon="3.74994">
        <ele>655.20001220703</ele>
        <time>2012-06-21T16:50:33Z</time>
      </trkpt>
      <trkpt lat="45.38341" lon="3.7499">
        <ele>656.20001220703</ele>
        <time>2012-06-21T16:50:36Z</time>
      </trkpt>
      <trkpt lat="45.38332" lon="3.74988">
        <ele>651.79998779297</ele>
        <time>2012-06-21T16:50:41Z</time>
      </trkpt>
      <trkpt lat="45.38327" lon="3.74986">
        <ele>651.5</ele>
        <time>2012-06-21T16:50:43Z</time>
      </trkpt>
      <trkpt lat="45.38305" lon="3.74986">
        <ele>643.79998779297</ele>
        <time>2012-06-21T16:50:51Z</time>
      </trkpt>
      <trkpt lat="45.38297" lon="3.74985">
        <ele>641.09997558594</ele>
        <time>2012-06-21T16:50:56Z</time>
      </trkpt>
      <trkpt lat="45.38293" lon="3.74987">
        <ele>643.09997558594</ele>
        <time>2012-06-21T16:50:58Z</time>
      </trkpt>
      <trkpt lat="45.38288" lon="3.74991">
        <ele>641.90002441406</ele>
        <time>2012-06-21T16:51:01Z</time>
      </trkpt>
      <trkpt lat="45.38282" lon="3.74994">
        <ele>641.90002441406</ele>
        <time>2012-06-21T16:51:04Z</time>
      </trkpt>
      <trkpt lat="45.38278" lon="3.75">
        <ele>638.79998779297</ele>
        <time>2012-06-21T16:51:07Z</time>
      </trkpt>
      <trkpt lat="45.3827" lon="3.75004">
        <ele>639.70001220703</ele>
        <time>2012-06-21T16:51:13Z</time>
      </trkpt>
      <trkpt lat="45.38265" lon="3.75003">
        <ele>636.59997558594</ele>
        <time>2012-06-21T16:51:15Z</time>
      </trkpt>
      <trkpt lat="45.3826" lon="3.75004">
        <ele>638.79998779297</ele>
        <time>2012-06-21T16:51:17Z</time>
      </trkpt>
      <trkpt lat="45.38248" lon="3.75005">
        <ele>640.40002441406</ele>
        <time>2012-06-21T16:51:21Z</time>
      </trkpt>
      <trkpt lat="45.38243" lon="3.75004">
        <ele>639.70001220703</ele>
        <time>2012-06-21T16:51:23Z</time>
      </trkpt>
      <trkpt lat="45.38239" lon="3.74999">
        <ele>640.70001220703</ele>
        <time>2012-06-21T16:51:26Z</time>
      </trkpt>
      <trkpt lat="45.38235" lon="3.74995">
        <ele>642.40002441406</ele>
        <time>2012-06-21T16:51:29Z</time>
      </trkpt>
      <trkpt lat="45.38231" lon="3.74988">
        <ele>645.79998779297</ele>
        <time>2012-06-21T16:51:32Z</time>
      </trkpt>
      <trkpt lat="45.38228" lon="3.74982">
        <ele>647.70001220703</ele>
        <time>2012-06-21T16:51:36Z</time>
      </trkpt>
      <trkpt lat="45.38227" lon="3.74975">
        <ele>650</ele>
        <time>2012-06-21T16:51:38Z</time>
      </trkpt>
      <trkpt lat="45.38223" lon="3.74968">
        <ele>650</ele>
        <time>2012-06-21T16:51:41Z</time>
      </trkpt>
      <trkpt lat="45.38219" lon="3.74959">
        <ele>647.90002441406</ele>
        <time>2012-06-21T16:51:45Z</time>
      </trkpt>
      <trkpt lat="45.38214" lon="3.74954">
        <ele>648.90002441406</ele>
        <time>2012-06-21T16:51:48Z</time>
      </trkpt>
      <trkpt lat="45.3821" lon="3.74949">
        <ele>647.5</ele>
        <time>2012-06-21T16:51:50Z</time>
      </trkpt>
      <trkpt lat="45.38201" lon="3.7494">
        <ele>650.09997558594</ele>
        <time>2012-06-21T16:51:55Z</time>
      </trkpt>
      <trkpt lat="45.38197" lon="3.74937">
        <ele>651</ele>
        <time>2012-06-21T16:51:57Z</time>
      </trkpt>
      <trkpt lat="45.38193" lon="3.74932">
        <ele>649.79998779297</ele>
        <time>2012-06-21T16:52:00Z</time>
      </trkpt>
      <trkpt lat="45.38189" lon="3.74928">
        <ele>648.5</ele>
        <time>2012-06-21T16:52:03Z</time>
      </trkpt>
      <trkpt lat="45.38184" lon="3.74925">
        <ele>647.59997558594</ele>
        <time>2012-06-21T16:52:05Z</time>
      </trkpt>
      <trkpt lat="45.3818" lon="3.74922">
        <ele>647.79998779297</ele>
        <time>2012-06-21T16:52:07Z</time>
      </trkpt>
      <trkpt lat="45.38176" lon="3.74917">
        <ele>646.90002441406</ele>
        <time>2012-06-21T16:52:09Z</time>
      </trkpt>
      <trkpt lat="45.38172" lon="3.74914">
        <ele>645</ele>
        <time>2012-06-21T16:52:11Z</time>
      </trkpt>
      <trkpt lat="45.38167" lon="3.7491">
        <ele>648</ele>
        <time>2012-06-21T16:52:13Z</time>
      </trkpt>
      <trkpt lat="45.3817" lon="3.74893">
        <ele>644.5</ele>
        <time>2012-06-21T16:52:21Z</time>
      </trkpt>
      <trkpt lat="45.38173" lon="3.74887">
        <ele>645.90002441406</ele>
        <time>2012-06-21T16:52:22Z</time>
      </trkpt>
      <trkpt lat="45.38177" lon="3.74883">
        <ele>646.59997558594</ele>
        <time>2012-06-21T16:52:25Z</time>
      </trkpt>
      <trkpt lat="45.38183" lon="3.74866">
        <ele>649.90002441406</ele>
        <time>2012-06-21T16:52:30Z</time>
      </trkpt>
      <trkpt lat="45.38187" lon="3.7486">
        <ele>650.59997558594</ele>
        <time>2012-06-21T16:52:32Z</time>
      </trkpt>
      <trkpt lat="45.38193" lon="3.74837">
        <ele>654.20001220703</ele>
        <time>2012-06-21T16:52:38Z</time>
      </trkpt>
      <trkpt lat="45.38194" lon="3.74831">
        <ele>654.5</ele>
        <time>2012-06-21T16:52:41Z</time>
      </trkpt>
      <trkpt lat="45.38196" lon="3.74825">
        <ele>654.90002441406</ele>
        <time>2012-06-21T16:52:43Z</time>
      </trkpt>
      <trkpt lat="45.38199" lon="3.74818">
        <ele>654.20001220703</ele>
        <time>2012-06-21T16:52:46Z</time>
      </trkpt>
      <trkpt lat="45.38201" lon="3.74811">
        <ele>652.40002441406</ele>
        <time>2012-06-21T16:52:50Z</time>
      </trkpt>
      <trkpt lat="45.38206" lon="3.74806">
        <ele>651.09997558594</ele>
        <time>2012-06-21T16:52:52Z</time>
      </trkpt>
      <trkpt lat="45.3821" lon="3.748">
        <ele>654.40002441406</ele>
        <time>2012-06-21T16:52:54Z</time>
      </trkpt>
      <trkpt lat="45.38213" lon="3.74794">
        <ele>655.09997558594</ele>
        <time>2012-06-21T16:52:56Z</time>
      </trkpt>
      <trkpt lat="45.38216" lon="3.74787">
        <ele>653.40002441406</ele>
        <time>2012-06-21T16:52:59Z</time>
      </trkpt>
      <trkpt lat="45.38219" lon="3.7478">
        <ele>653.90002441406</ele>
        <time>2012-06-21T16:53:01Z</time>
      </trkpt>
      <trkpt lat="45.38224" lon="3.74765">
        <ele>653.20001220703</ele>
        <time>2012-06-21T16:53:07Z</time>
      </trkpt>
      <trkpt lat="45.38227" lon="3.7476">
        <ele>652.59997558594</ele>
        <time>2012-06-21T16:53:09Z</time>
      </trkpt>
      <trkpt lat="45.38232" lon="3.74747">
        <ele>652.09997558594</ele>
        <time>2012-06-21T16:53:14Z</time>
      </trkpt>
      <trkpt lat="45.38234" lon="3.74741">
        <ele>650.09997558594</ele>
        <time>2012-06-21T16:53:15Z</time>
      </trkpt>
      <trkpt lat="45.38236" lon="3.74733">
        <ele>648.90002441406</ele>
        <time>2012-06-21T16:53:19Z</time>
      </trkpt>
      <trkpt lat="45.38238" lon="3.74727">
        <ele>647.59997558594</ele>
        <time>2012-06-21T16:53:20Z</time>
      </trkpt>
      <trkpt lat="45.38244" lon="3.74698">
        <ele>643.5</ele>
        <time>2012-06-21T16:53:30Z</time>
      </trkpt>
      <trkpt lat="45.38246" lon="3.74687">
        <ele>642.5</ele>
        <time>2012-06-21T16:53:33Z</time>
      </trkpt>
      <trkpt lat="45.38248" lon="3.7468">
        <ele>643.20001220703</ele>
        <time>2012-06-21T16:53:35Z</time>
      </trkpt>
      <trkpt lat="45.38252" lon="3.74671">
        <ele>644.20001220703</ele>
        <time>2012-06-21T16:53:38Z</time>
      </trkpt>
      <trkpt lat="45.38256" lon="3.74664">
        <ele>644.09997558594</ele>
        <time>2012-06-21T16:53:41Z</time>
      </trkpt>
      <trkpt lat="45.38254" lon="3.74653">
        <ele>644.90002441406</ele>
        <time>2012-06-21T16:53:43Z</time>
      </trkpt>
      <trkpt lat="45.38255" lon="3.74645">
        <ele>646.90002441406</ele>
        <time>2012-06-21T16:53:45Z</time>
      </trkpt>
      <trkpt lat="45.38257" lon="3.74639">
        <ele>644.90002441406</ele>
        <time>2012-06-21T16:53:47Z</time>
      </trkpt>
      <trkpt lat="45.3826" lon="3.74633">
        <ele>644</ele>
        <time>2012-06-21T16:53:49Z</time>
      </trkpt>
      <trkpt lat="45.38263" lon="3.74627">
        <ele>644.70001220703</ele>
        <time>2012-06-21T16:53:51Z</time>
      </trkpt>
      <trkpt lat="45.38266" lon="3.74621">
        <ele>643.70001220703</ele>
        <time>2012-06-21T16:53:53Z</time>
      </trkpt>
      <trkpt lat="45.38266" lon="3.74593">
        <ele>643.5</ele>
        <time>2012-06-21T16:54:01Z</time>
      </trkpt>
      <trkpt lat="45.3826" lon="3.74588">
        <ele>644.59997558594</ele>
        <time>2012-06-21T16:54:03Z</time>
      </trkpt>
      <trkpt lat="45.38254" lon="3.74582">
        <ele>645.40002441406</ele>
        <time>2012-06-21T16:54:06Z</time>
      </trkpt>
      <trkpt lat="45.38242" lon="3.74578">
        <ele>643.20001220703</ele>
        <time>2012-06-21T16:54:09Z</time>
      </trkpt>
      <trkpt lat="45.38236" lon="3.74575">
        <ele>645.70001220703</ele>
        <time>2012-06-21T16:54:11Z</time>
      </trkpt>
      <trkpt lat="45.38232" lon="3.74575">
        <ele>645.29998779297</ele>
        <time>2012-06-21T16:54:13Z</time>
      </trkpt>
      <trkpt lat="45.38226" lon="3.74578">
        <ele>646.20001220703</ele>
        <time>2012-06-21T16:54:18Z</time>
      </trkpt>
      <trkpt lat="45.38224" lon="3.74585">
        <ele>647.70001220703</ele>
        <time>2012-06-21T16:54:20Z</time>
      </trkpt>
      <trkpt lat="45.38221" lon="3.74591">
        <ele>649.09997558594</ele>
        <time>2012-06-21T16:54:22Z</time>
      </trkpt>
      <trkpt lat="45.38218" lon="3.74597">
        <ele>649.40002441406</ele>
        <time>2012-06-21T16:54:24Z</time>
      </trkpt>
      <trkpt lat="45.38215" lon="3.74606">
        <ele>650.29998779297</ele>
        <time>2012-06-21T16:54:27Z</time>
      </trkpt>
      <trkpt lat="45.38209" lon="3.74615">
        <ele>650.5</ele>
        <time>2012-06-21T16:54:31Z</time>
      </trkpt>
      <trkpt lat="45.38205" lon="3.74623">
        <ele>651.20001220703</ele>
        <time>2012-06-21T16:54:34Z</time>
      </trkpt>
      <trkpt lat="45.38202" lon="3.74628">
        <ele>651.59997558594</ele>
        <time>2012-06-21T16:54:36Z</time>
      </trkpt>
      <trkpt lat="45.38195" lon="3.7463">
        <ele>651.70001220703</ele>
        <time>2012-06-21T16:54:39Z</time>
      </trkpt>
      <trkpt lat="45.38189" lon="3.74633">
        <ele>652.40002441406</ele>
        <time>2012-06-21T16:54:42Z</time>
      </trkpt>
      <trkpt lat="45.38185" lon="3.74639">
        <ele>653.79998779297</ele>
        <time>2012-06-21T16:54:45Z</time>
      </trkpt>
      <trkpt lat="45.38181" lon="3.74646">
        <ele>653.40002441406</ele>
        <time>2012-06-21T16:54:47Z</time>
      </trkpt>
      <trkpt lat="45.38178" lon="3.74653">
        <ele>654.09997558594</ele>
        <time>2012-06-21T16:54:49Z</time>
      </trkpt>
      <trkpt lat="45.38175" lon="3.74658">
        <ele>655.79998779297</ele>
        <time>2012-06-21T16:54:51Z</time>
      </trkpt>
      <trkpt lat="45.38171" lon="3.74664">
        <ele>657.29998779297</ele>
        <time>2012-06-21T16:54:53Z</time>
      </trkpt>
      <trkpt lat="45.38167" lon="3.7467">
        <ele>656</ele>
        <time>2012-06-21T16:54:56Z</time>
      </trkpt>
      <trkpt lat="45.38163" lon="3.74677">
        <ele>656.29998779297</ele>
        <time>2012-06-21T16:54:59Z</time>
      </trkpt>
    </trkseg>
  </trk>
</gpx>